sensor_id;sensor_type;location;lat;lon;timestamp;pressure;altitude;pressure_sealevel;temperature;humidity
42887;BME280;29032;56.028;92.904;2023-03-21T00:03:21;100996.00;;;-10.95;37.48
42887;BME280;29032;56.028;92.904;2023-03-21T00:08:25;100993.47;;;-11.15;37.97
42887;BME280;29032;56.028;92.904;2023-03-21T00:13:28;100992.13;;;-11.32;38.03
42887;BME280;29032;56.028;92.904;2023-03-21T00:18:31;100993.28;;;-11.33;38.47
42887;BME280;29032;56.028;92.904;2023-03-21T00:23:35;100990.88;;;-11.38;39.55
42887;BME280;29032;56.028;92.904;2023-03-21T00:28:37;100981.69;;;-11.33;38.95
42887;BME280;29032;56.028;92.904;2023-03-21T00:33:39;100984.94;;;-11.20;38.32
42887;BME280;29032;56.028;92.904;2023-03-21T00:38:43;100991.22;;;-11.09;37.75
42887;BME280;29032;56.028;92.904;2023-03-21T00:43:45;100986.66;;;-11.02;37.57
42887;BME280;29032;56.028;92.904;2023-03-21T00:48:47;100992.06;;;-11.02;38.06
42887;BME280;29032;56.028;92.904;2023-03-21T00:53:52;100974.97;;;-11.13;37.70
42887;BME280;29032;56.028;92.904;2023-03-21T00:58:54;100971.28;;;-11.31;38.13
42887;BME280;29032;56.028;92.904;2023-03-21T01:03:57;100967.16;;;-11.21;37.99
42887;BME280;29032;56.028;92.904;2023-03-21T01:09:00;100978.47;;;-11.12;37.62
42887;BME280;29032;56.028;92.904;2023-03-21T01:14:02;100979.16;;;-11.19;38.08
42887;BME280;29032;56.028;92.904;2023-03-21T01:19:06;100978.63;;;-11.32;38.56
42887;BME280;29032;56.028;92.904;2023-03-21T01:24:10;100986.41;;;-11.27;38.71
42887;BME280;29032;56.028;92.904;2023-03-21T01:29:12;100982.41;;;-11.03;38.11
42887;BME280;29032;56.028;92.904;2023-03-21T01:34:14;100983.75;;;-10.86;38.26
42887;BME280;29032;56.028;92.904;2023-03-21T01:39:18;100984.75;;;-10.60;37.81
42887;BME280;29032;56.028;92.904;2023-03-21T01:44:24;100975.63;;;-10.45;37.37
42887;BME280;29032;56.028;92.904;2023-03-21T01:49:31;100967.22;;;-10.33;37.21
42887;BME280;29032;56.028;92.904;2023-03-21T01:54:47;100962.63;;;-10.29;37.17
42887;BME280;29032;56.028;92.904;2023-03-21T01:59:51;100970.13;;;-10.04;36.61
42887;BME280;29032;56.028;92.904;2023-03-21T02:05:25;100970.25;;;-9.83;36.74
42887;BME280;29032;56.028;92.904;2023-03-21T02:10:32;100975.75;;;-9.72;36.55
42887;BME280;29032;56.028;92.904;2023-03-21T02:15:37;100978.50;;;-9.62;36.43
42887;BME280;29032;56.028;92.904;2023-03-21T02:21:10;100986.97;;;-9.67;36.46
42887;BME280;29032;56.028;92.904;2023-03-21T02:32:17;100980.09;;;-9.53;36.20
42887;BME280;29032;56.028;92.904;2023-03-21T02:37:33;100970.06;;;-9.46;36.40
42887;BME280;29032;56.028;92.904;2023-03-21T02:42:44;100974.75;;;-9.32;36.96
42887;BME280;29032;56.028;92.904;2023-03-21T02:47:54;100980.25;;;-9.11;36.17
42887;BME280;29032;56.028;92.904;2023-03-21T02:53:00;100978.03;;;-8.77;36.07
42887;BME280;29032;56.028;92.904;2023-03-21T02:58:09;100970.28;;;-8.71;35.83
42887;BME280;29032;56.028;92.904;2023-03-21T03:03:13;100971.06;;;-8.42;35.87
42887;BME280;29032;56.028;92.904;2023-03-21T03:08:26;100969.13;;;-8.34;35.92
42887;BME280;29032;56.028;92.904;2023-03-21T03:13:39;100963.72;;;-8.27;35.05
42887;BME280;29032;56.028;92.904;2023-03-21T03:18:51;100972.25;;;-8.25;35.07
42887;BME280;29032;56.028;92.904;2023-03-21T03:24:01;100965.63;;;-8.13;35.37
42887;BME280;29032;56.028;92.904;2023-03-21T03:29:07;100957.09;;;-8.01;35.38
42887;BME280;29032;56.028;92.904;2023-03-21T03:34:13;100960.94;;;-7.91;36.25
42887;BME280;29032;56.028;92.904;2023-03-21T03:39:22;100953.19;;;-7.86;35.03
42887;BME280;29032;56.028;92.904;2023-03-21T03:44:33;100948.47;;;-7.71;33.72
42887;BME280;29032;56.028;92.904;2023-03-21T03:49:59;100942.38;;;-8.04;35.00
42887;BME280;29032;56.028;92.904;2023-03-21T03:55:09;100950.91;;;-8.09;35.39
42887;BME280;29032;56.028;92.904;2023-03-21T04:00:16;100940.03;;;-8.02;34.25
42887;BME280;29032;56.028;92.904;2023-03-21T04:05:26;100934.56;;;-7.91;33.28
42887;BME280;29032;56.028;92.904;2023-03-21T04:10:30;100933.00;;;-7.81;33.12
42887;BME280;29032;56.028;92.904;2023-03-21T04:15:32;100929.84;;;-7.76;33.45
42887;BME280;29032;56.028;92.904;2023-03-21T04:20:41;100927.09;;;-7.55;33.18
42887;BME280;29032;56.028;92.904;2023-03-21T04:25:45;100921.97;;;-7.39;32.66
42887;BME280;29032;56.028;92.904;2023-03-21T04:30:48;100923.47;;;-7.34;33.00
42887;BME280;29032;56.028;92.904;2023-03-21T04:35:52;100901.72;;;-7.27;32.72
42887;BME280;29032;56.028;92.904;2023-03-21T04:40:56;100900.88;;;-7.17;32.20
42887;BME280;29032;56.028;92.904;2023-03-21T04:45:59;100900.88;;;-7.20;31.97
42887;BME280;29032;56.028;92.904;2023-03-21T04:51:01;100893.63;;;-7.45;32.04
42887;BME280;29032;56.028;92.904;2023-03-21T04:56:06;100888.16;;;-7.41;32.50
42887;BME280;29032;56.028;92.904;2023-03-21T05:01:09;100874.50;;;-7.23;32.76
42887;BME280;29032;56.028;92.904;2023-03-21T05:06:31;100872.00;;;-7.00;32.80
42887;BME280;29032;56.028;92.904;2023-03-21T05:11:36;100864.56;;;-6.92;32.30
42887;BME280;29032;56.028;92.904;2023-03-21T05:16:40;100861.16;;;-7.07;32.20
42887;BME280;29032;56.028;92.904;2023-03-21T05:21:43;100858.03;;;-6.98;33.35
42887;BME280;29032;56.028;92.904;2023-03-21T05:26:52;100851.69;;;-6.85;32.23
42887;BME280;29032;56.028;92.904;2023-03-21T05:31:58;100852.47;;;-6.84;32.80
42887;BME280;29032;56.028;92.904;2023-03-21T05:37:00;100840.22;;;-7.10;31.02
42887;BME280;29032;56.028;92.904;2023-03-21T05:42:17;100839.66;;;-7.43;31.69
42887;BME280;29032;56.028;92.904;2023-03-21T05:47:19;100833.47;;;-7.47;32.59
42887;BME280;29032;56.028;92.904;2023-03-21T05:52:41;100827.44;;;-7.17;31.86
42887;BME280;29032;56.028;92.904;2023-03-21T05:57:49;100829.41;;;-7.21;32.07
42887;BME280;29032;56.028;92.904;2023-03-21T06:03:11;100824.69;;;-7.13;31.49
42887;BME280;29032;56.028;92.904;2023-03-21T06:08:32;100824.63;;;-7.06;31.63
42887;BME280;29032;56.028;92.904;2023-03-21T06:13:56;100820.53;;;-6.76;31.24
42887;BME280;29032;56.028;92.904;2023-03-21T06:18:58;100807.16;;;-6.60;30.79
42887;BME280;29032;56.028;92.904;2023-03-21T06:24:20;100814.81;;;-6.48;30.62
42887;BME280;29032;56.028;92.904;2023-03-21T06:29:25;100808.44;;;-6.34;30.88
42887;BME280;29032;56.028;92.904;2023-03-21T06:34:27;100801.75;;;-6.30;29.82
42887;BME280;29032;56.028;92.904;2023-03-21T06:39:29;100803.31;;;-6.29;30.88
42887;BME280;29032;56.028;92.904;2023-03-21T06:44:52;100798.44;;;-6.10;30.15
42887;BME280;29032;56.028;92.904;2023-03-21T06:49:55;100786.94;;;-5.94;30.21
42887;BME280;29032;56.028;92.904;2023-03-21T06:54:57;100784.41;;;-6.09;30.30
42887;BME280;29032;56.028;92.904;2023-03-21T07:00:22;100778.38;;;-5.93;29.94
42887;BME280;29032;56.028;92.904;2023-03-21T07:05:26;100779.66;;;-5.70;29.88
42887;BME280;29032;56.028;92.904;2023-03-21T07:10:29;100779.06;;;-5.58;29.28
42887;BME280;29032;56.028;92.904;2023-03-21T07:15:40;100782.72;;;-5.41;29.24
42887;BME280;29032;56.028;92.904;2023-03-21T07:20:45;100776.97;;;-5.47;29.31
42887;BME280;29032;56.028;92.904;2023-03-21T07:25:48;100783.63;;;-5.52;29.03
42887;BME280;29032;56.028;92.904;2023-03-21T07:30:54;100771.81;;;-5.68;29.31
42887;BME280;29032;56.028;92.904;2023-03-21T07:35:57;100769.50;;;-5.70;29.65
42887;BME280;29032;56.028;92.904;2023-03-21T07:41:00;100780.81;;;-6.02;29.25
42887;BME280;29032;56.028;92.904;2023-03-21T07:46:08;100777.91;;;-5.88;29.46
42887;BME280;29032;56.028;92.904;2023-03-21T07:51:11;100773.25;;;-5.60;29.49
42887;BME280;29032;56.028;92.904;2023-03-21T07:56:13;100781.13;;;-5.39;28.36
42887;BME280;29032;56.028;92.904;2023-03-21T08:01:17;100778.06;;;-5.18;28.09
42887;BME280;29032;56.028;92.904;2023-03-21T08:06:20;100774.41;;;-5.07;27.89
42887;BME280;29032;56.028;92.904;2023-03-21T08:11:22;100770.72;;;-4.97;27.62
42887;BME280;29032;56.028;92.904;2023-03-21T08:16:26;100775.25;;;-4.87;28.03
42887;BME280;29032;56.028;92.904;2023-03-21T08:21:48;100759.56;;;-5.06;27.96
42887;BME280;29032;56.028;92.904;2023-03-21T08:26:50;100770.28;;;-5.19;27.32
42887;BME280;29032;56.028;92.904;2023-03-21T08:31:54;100765.59;;;-5.19;28.11
42887;BME280;29032;56.028;92.904;2023-03-21T08:36:57;100772.50;;;-5.10;27.69
42887;BME280;29032;56.028;92.904;2023-03-21T08:42:19;100762.75;;;-4.88;27.53
42887;BME280;29032;56.028;92.904;2023-03-21T08:47:42;100772.13;;;-4.89;27.04
42887;BME280;29032;56.028;92.904;2023-03-21T08:52:45;100777.59;;;-4.89;27.04
42887;BME280;29032;56.028;92.904;2023-03-21T08:57:47;100778.97;;;-4.77;27.26
42887;BME280;29032;56.028;92.904;2023-03-21T09:02:50;100776.59;;;-4.55;27.05
42887;BME280;29032;56.028;92.904;2023-03-21T09:07:53;100776.06;;;-4.47;27.52
42887;BME280;29032;56.028;92.904;2023-03-21T09:12:56;100778.84;;;-4.70;26.88
42887;BME280;29032;56.028;92.904;2023-03-21T09:18:00;100771.75;;;-4.68;27.73
42887;BME280;29032;56.028;92.904;2023-03-21T09:23:03;100776.94;;;-4.53;27.09
42887;BME280;29032;56.028;92.904;2023-03-21T09:28:05;100780.56;;;-3.28;26.95
42887;BME280;29032;56.028;92.904;2023-03-21T09:33:10;100775.84;;;-1.53;24.73
42887;BME280;29032;56.028;92.904;2023-03-21T09:38:13;100782.88;;;-0.80;23.90
42887;BME280;29032;56.028;92.904;2023-03-21T09:43:23;100784.03;;;-1.92;23.89
42887;BME280;29032;56.028;92.904;2023-03-21T09:48:37;100777.59;;;-3.17;24.91
42887;BME280;29032;56.028;92.904;2023-03-21T09:54:05;100793.50;;;-4.01;26.13
42887;BME280;29032;56.028;92.904;2023-03-21T09:59:19;100792.38;;;-4.43;26.57
42887;BME280;29032;56.028;92.904;2023-03-21T10:04:23;100791.53;;;-4.83;26.40
42887;BME280;29032;56.028;92.904;2023-03-21T10:09:26;100790.63;;;-5.24;26.54
42887;BME280;29032;56.028;92.904;2023-03-21T10:14:32;100791.81;;;-5.25;27.12
42887;BME280;29032;56.028;92.904;2023-03-21T10:19:37;100802.97;;;-5.15;26.84
42887;BME280;29032;56.028;92.904;2023-03-21T10:24:39;100799.78;;;-5.10;26.83
42887;BME280;29032;56.028;92.904;2023-03-21T10:30:02;100810.53;;;-5.00;27.12
42887;BME280;29032;56.028;92.904;2023-03-21T10:35:11;100803.88;;;-4.75;27.84
42887;BME280;29032;56.028;92.904;2023-03-21T10:40:16;100805.97;;;-4.83;26.88
42887;BME280;29032;56.028;92.904;2023-03-21T10:45:18;100806.53;;;-4.95;27.35
42887;BME280;29032;56.028;92.904;2023-03-21T10:50:26;100805.28;;;-4.67;28.92
42887;BME280;29032;56.028;92.904;2023-03-21T10:55:32;100813.69;;;-4.78;27.01
42887;BME280;29032;56.028;92.904;2023-03-21T11:00:38;100819.59;;;-5.06;27.55
42887;BME280;29032;56.028;92.904;2023-03-21T11:05:43;100819.25;;;-5.35;27.76
42887;BME280;29032;56.028;92.904;2023-03-21T11:10:53;100831.44;;;-5.70;28.79
42887;BME280;29032;56.028;92.904;2023-03-21T11:15:58;100843.63;;;-5.79;28.93
42887;BME280;29032;56.028;92.904;2023-03-21T11:21:08;100840.28;;;-5.63;29.29
42887;BME280;29032;56.028;92.904;2023-03-21T11:26:16;100832.47;;;-5.61;29.04
42887;BME280;29032;56.028;92.904;2023-03-21T11:31:40;100841.06;;;-5.62;29.27
42887;BME280;29032;56.028;92.904;2023-03-21T11:37:03;100834.59;;;-5.45;29.52
42887;BME280;29032;56.028;92.904;2023-03-21T11:42:25;100835.03;;;-5.23;29.10
42887;BME280;29032;56.028;92.904;2023-03-21T11:47:48;100847.56;;;-5.26;30.42
42887;BME280;29032;56.028;92.904;2023-03-21T11:53:02;100839.63;;;-5.17;29.34
42887;BME280;29032;56.028;92.904;2023-03-21T11:58:19;100841.09;;;-5.08;29.20
42887;BME280;29032;56.028;92.904;2023-03-21T12:03:45;100844.06;;;-4.99;29.94
42887;BME280;29032;56.028;92.904;2023-03-21T12:08:58;100842.97;;;-5.05;29.93
42887;BME280;29032;56.028;92.904;2023-03-21T12:14:09;100856.16;;;-5.00;29.19
42887;BME280;29032;56.028;92.904;2023-03-21T12:19:32;100861.25;;;-5.02;29.77
42887;BME280;29032;56.028;92.904;2023-03-21T12:24:45;100870.69;;;-5.07;30.26
42887;BME280;29032;56.028;92.904;2023-03-21T12:30:02;100865.47;;;-5.25;29.29
42887;BME280;29032;56.028;92.904;2023-03-21T12:35:19;100869.47;;;-5.33;30.01
42887;BME280;29032;56.028;92.904;2023-03-21T12:40:59;100872.47;;;-5.24;29.65
42887;BME280;29032;56.028;92.904;2023-03-21T12:46:12;100881.38;;;-5.20;30.10
42887;BME280;29032;56.028;92.904;2023-03-21T12:51:22;100881.03;;;-5.22;29.34
42887;BME280;29032;56.028;92.904;2023-03-21T12:56:29;100886.59;;;-5.29;30.09
42887;BME280;29032;56.028;92.904;2023-03-21T13:01:34;100889.03;;;-5.38;29.74
42887;BME280;29032;56.028;92.904;2023-03-21T13:06:39;100890.56;;;-5.37;29.74
42887;BME280;29032;56.028;92.904;2023-03-21T13:11:44;100896.84;;;-5.40;29.67
42887;BME280;29032;56.028;92.904;2023-03-21T13:16:48;100900.81;;;-5.45;29.55
42887;BME280;29032;56.028;92.904;2023-03-21T13:22:20;100894.66;;;-5.52;30.29
42887;BME280;29032;56.028;92.904;2023-03-21T13:27:29;100902.06;;;-5.53;30.45
42887;BME280;29032;56.028;92.904;2023-03-21T13:32:33;100918.75;;;-5.47;30.21
42887;BME280;29032;56.028;92.904;2023-03-21T13:37:39;100911.81;;;-5.52;29.94
42887;BME280;29032;56.028;92.904;2023-03-21T13:42:50;100916.38;;;-5.45;30.33
42887;BME280;29032;56.028;92.904;2023-03-21T13:47:56;100926.59;;;-5.49;30.12
42887;BME280;29032;56.028;92.904;2023-03-21T13:53:22;100926.59;;;-5.49;30.18
42887;BME280;29032;56.028;92.904;2023-03-21T13:58:33;100934.69;;;-5.42;30.04
42887;BME280;29032;56.028;92.904;2023-03-21T14:03:39;100944.50;;;-5.48;29.58
42887;BME280;29032;56.028;92.904;2023-03-21T14:08:44;100924.75;;;-5.59;29.99
42887;BME280;29032;56.028;92.904;2023-03-21T14:13:48;100930.94;;;-5.55;29.91
42887;BME280;29032;56.028;92.904;2023-03-21T14:18:53;100940.75;;;-5.61;29.81
42887;BME280;29032;56.028;92.904;2023-03-21T14:24:00;100940.09;;;-5.73;29.97
42887;BME280;29032;56.028;92.904;2023-03-21T14:29:25;100933.16;;;-5.81;30.01
42887;BME280;29032;56.028;92.904;2023-03-21T14:34:31;100943.34;;;-5.85;30.89
42887;BME280;29032;56.028;92.904;2023-03-21T14:39:34;100948.88;;;-5.92;30.18
42887;BME280;29032;56.028;92.904;2023-03-21T14:44:40;100942.53;;;-5.82;30.57
42887;BME280;29032;56.028;92.904;2023-03-21T14:49:43;100951.81;;;-5.76;30.42
42887;BME280;29032;56.028;92.904;2023-03-21T14:54:46;100964.19;;;-5.67;30.86
42887;BME280;29032;56.028;92.904;2023-03-21T15:00:16;100965.63;;;-5.56;30.43
42887;BME280;29032;56.028;92.904;2023-03-21T15:05:40;100970.31;;;-5.56;30.25
42887;BME280;29032;56.028;92.904;2023-03-21T15:10:54;100960.09;;;-5.49;30.49
42887;BME280;29032;56.028;92.904;2023-03-21T15:15:58;100957.84;;;-5.57;30.33
42887;BME280;29032;56.028;92.904;2023-03-21T15:21:04;100967.19;;;-5.58;30.43
42887;BME280;29032;56.028;92.904;2023-03-21T15:26:12;100965.56;;;-5.52;30.33
42887;BME280;29032;56.028;92.904;2023-03-21T15:31:39;100972.63;;;-5.58;30.50
42887;BME280;29032;56.028;92.904;2023-03-21T15:36:43;100978.50;;;-5.60;30.65
42887;BME280;29032;56.028;92.904;2023-03-21T15:42:23;100969.47;;;-5.53;30.69
42887;BME280;29032;56.028;92.904;2023-03-21T15:47:41;100971.94;;;-5.62;30.58
42887;BME280;29032;56.028;92.904;2023-03-21T15:52:43;100976.78;;;-5.81;30.52
42887;BME280;29032;56.028;92.904;2023-03-21T15:58:13;100971.31;;;-5.81;30.80
42887;BME280;29032;56.028;92.904;2023-03-21T16:03:20;100971.31;;;-5.81;30.73
42887;BME280;29032;56.028;92.904;2023-03-21T16:08:26;100976.31;;;-6.13;31.13
42887;BME280;29032;56.028;92.904;2023-03-21T16:13:49;100985.41;;;-6.27;31.01
42887;BME280;29032;56.028;92.904;2023-03-21T16:18:53;100979.59;;;-6.36;31.19
42887;BME280;29032;56.028;92.904;2023-03-21T16:23:56;100988.28;;;-6.48;31.80
42887;BME280;29032;56.028;92.904;2023-03-21T16:28:59;100989.09;;;-6.55;31.95
42887;BME280;29032;56.028;92.904;2023-03-21T16:34:03;100985.97;;;-6.53;31.93
42887;BME280;29032;56.028;92.904;2023-03-21T16:39:25;100992.59;;;-6.54;31.93
42887;BME280;29032;56.028;92.904;2023-03-21T16:44:27;101002.25;;;-6.46;31.82
42887;BME280;29032;56.028;92.904;2023-03-21T16:49:31;100995.22;;;-6.44;31.84
42887;BME280;29032;56.028;92.904;2023-03-21T16:54:52;100994.47;;;-6.44;31.96
42887;BME280;29032;56.028;92.904;2023-03-21T16:59:54;100993.28;;;-6.43;32.58
42887;BME280;29032;56.028;92.904;2023-03-21T17:05:18;100992.88;;;-6.38;32.06
42887;BME280;29032;56.028;92.904;2023-03-21T17:10:39;101006.13;;;-6.44;32.13
42887;BME280;29032;56.028;92.904;2023-03-21T17:16:01;100995.28;;;-6.51;32.86
42887;BME280;29032;56.028;92.904;2023-03-21T17:21:11;100996.47;;;-6.52;32.94
42887;BME280;29032;56.028;92.904;2023-03-21T17:26:16;100988.03;;;-6.68;32.88
42887;BME280;29032;56.028;92.904;2023-03-21T17:31:21;100997.41;;;-6.76;33.43
42887;BME280;29032;56.028;92.904;2023-03-21T17:36:29;101000.22;;;-6.91;33.54
42887;BME280;29032;56.028;92.904;2023-03-21T17:41:33;101007.31;;;-7.11;34.11
42887;BME280;29032;56.028;92.904;2023-03-21T17:46:36;101005.78;;;-7.19;34.20
42887;BME280;29032;56.028;92.904;2023-03-21T17:51:59;101007.38;;;-7.25;34.41
42887;BME280;29032;56.028;92.904;2023-03-21T17:57:01;101005.09;;;-7.45;34.70
42887;BME280;29032;56.028;92.904;2023-03-21T18:02:23;101015.22;;;-7.56;35.02
42887;BME280;29032;56.028;92.904;2023-03-21T18:07:27;101002.06;;;-7.75;35.26
42887;BME280;29032;56.028;92.904;2023-03-21T18:12:29;101010.25;;;-8.00;35.45
42887;BME280;29032;56.028;92.904;2023-03-21T18:17:51;101011.41;;;-8.05;35.55
42887;BME280;29032;56.028;92.904;2023-03-21T18:22:55;101013.75;;;-8.07;35.25
42887;BME280;29032;56.028;92.904;2023-03-21T18:27:57;101015.69;;;-8.18;35.71
42887;BME280;29032;56.028;92.904;2023-03-21T18:33:20;101013.38;;;-8.23;36.13
42887;BME280;29032;56.028;92.904;2023-03-21T18:38:25;101019.16;;;-8.21;35.96
42887;BME280;29032;56.028;92.904;2023-03-21T18:43:47;101026.94;;;-8.23;36.21
42887;BME280;29032;56.028;92.904;2023-03-21T18:48:49;101025.00;;;-8.30;36.24
42887;BME280;29032;56.028;92.904;2023-03-21T18:53:53;101036.25;;;-8.24;35.84
42887;BME280;29032;56.028;92.904;2023-03-21T18:58:56;101029.66;;;-8.16;35.64
42887;BME280;29032;56.028;92.904;2023-03-21T19:03:58;101040.13;;;-8.25;35.72
42887;BME280;29032;56.028;92.904;2023-03-21T19:09:03;101043.59;;;-8.21;36.14
42887;BME280;29032;56.028;92.904;2023-03-21T19:14:07;101042.44;;;-8.20;35.85
42887;BME280;29032;56.028;92.904;2023-03-21T19:19:30;101046.31;;;-8.21;35.78
42887;BME280;29032;56.028;92.904;2023-03-21T19:24:34;101033.13;;;-8.33;35.87
42887;BME280;29032;56.028;92.904;2023-03-21T19:29:36;101048.25;;;-8.46;36.16
42887;BME280;29032;56.028;92.904;2023-03-21T19:34:58;101043.19;;;-8.59;36.70
42887;BME280;29032;56.028;92.904;2023-03-21T19:40:22;101046.28;;;-8.60;36.41
42887;BME280;29032;56.028;92.904;2023-03-21T19:45:24;101059.06;;;-8.61;36.23
42887;BME280;29032;56.028;92.904;2023-03-21T19:50:27;101046.28;;;-8.57;36.88
42887;BME280;29032;56.028;92.904;2023-03-21T19:55:30;101046.28;;;-8.50;36.47
42887;BME280;29032;56.028;92.904;2023-03-21T20:00:33;101051.72;;;-8.50;36.03
42887;BME280;29032;56.028;92.904;2023-03-21T20:06:01;101046.69;;;-8.40;35.94
42887;BME280;29032;56.028;92.904;2023-03-21T20:11:05;101048.63;;;-8.44;36.34
42887;BME280;29032;56.028;92.904;2023-03-21T20:16:08;101049.38;;;-8.55;36.17
42887;BME280;29032;56.028;92.904;2023-03-21T20:21:11;101053.25;;;-8.63;36.58
42887;BME280;29032;56.028;92.904;2023-03-21T20:26:14;101061.78;;;-8.61;36.62
42887;BME280;29032;56.028;92.904;2023-03-21T20:31:16;101059.47;;;-8.59;36.67
42887;BME280;29032;56.028;92.904;2023-03-21T20:36:38;101062.19;;;-8.52;36.80
42887;BME280;29032;56.028;92.904;2023-03-21T20:42:03;101062.97;;;-8.48;36.83
42887;BME280;29032;56.028;92.904;2023-03-21T20:47:05;101068.78;;;-8.53;36.85
42887;BME280;29032;56.028;92.904;2023-03-21T20:52:08;101067.22;;;-8.54;37.08
42887;BME280;29032;56.028;92.904;2023-03-21T20:57:32;101061.81;;;-8.54;36.36
42887;BME280;29032;56.028;92.904;2023-03-21T21:14:19;101072.66;;;-8.61;36.77
42887;BME280;29032;56.028;92.904;2023-03-21T21:19:22;101074.16;;;-8.63;36.74
42887;BME280;29032;56.028;92.904;2023-03-21T21:24:24;101071.84;;;-8.65;37.25
42887;BME280;29032;56.028;92.904;2023-03-21T21:29:28;101073.41;;;-8.64;37.05
42887;BME280;29032;56.028;92.904;2023-03-21T21:34:30;101080.31;;;-8.77;36.63
42887;BME280;29032;56.028;92.904;2023-03-21T21:39:32;101081.41;;;-9.03;36.77
42887;BME280;29032;56.028;92.904;2023-03-21T21:44:35;101080.84;;;-9.34;38.13
42887;BME280;29032;56.028;92.904;2023-03-21T21:49:38;101079.16;;;-9.56;38.22
42887;BME280;29032;56.028;92.904;2023-03-21T21:54:41;101084.94;;;-9.61;37.86
42887;BME280;29032;56.028;92.904;2023-03-21T21:59:45;101076.78;;;-9.65;38.45
42887;BME280;29032;56.028;92.904;2023-03-21T22:04:48;101088.31;;;-9.75;38.07
42887;BME280;29032;56.028;92.904;2023-03-21T22:09:51;101086.59;;;-9.97;38.44
42887;BME280;29032;56.028;92.904;2023-03-21T22:14:56;101089.69;;;-9.95;39.00
42887;BME280;29032;56.028;92.904;2023-03-21T22:19:58;101092.06;;;-9.90;38.92
42887;BME280;29032;56.028;92.904;2023-03-21T22:25:00;101101.69;;;-9.96;39.19
42887;BME280;29032;56.028;92.904;2023-03-21T22:30:05;101106.81;;;-9.88;38.75
42887;BME280;29032;56.028;92.904;2023-03-21T22:35:09;101103.28;;;-9.88;39.18
42887;BME280;29032;56.028;92.904;2023-03-21T22:40:31;101116.06;;;-9.89;38.87
42887;BME280;29032;56.028;92.904;2023-03-21T22:45:34;101116.50;;;-9.83;38.99
42887;BME280;29032;56.028;92.904;2023-03-21T22:50:36;101112.56;;;-9.89;38.44
42887;BME280;29032;56.028;92.904;2023-03-21T22:55:38;101126.13;;;-9.89;38.70
42887;BME280;29032;56.028;92.904;2023-03-21T23:00:42;101124.56;;;-9.90;38.90
42887;BME280;29032;56.028;92.904;2023-03-21T23:06:04;101133.00;;;-9.99;38.98
42887;BME280;29032;56.028;92.904;2023-03-21T23:11:08;101129.13;;;-10.01;39.04
42887;BME280;29032;56.028;92.904;2023-03-21T23:16:11;101141.44;;;-10.07;39.09
42887;BME280;29032;56.028;92.904;2023-03-21T23:21:14;101150.63;;;-10.16;39.00
42887;BME280;29032;56.028;92.904;2023-03-21T23:26:19;101152.97;;;-10.14;39.55
42887;BME280;29032;56.028;92.904;2023-03-21T23:31:24;101152.97;;;-10.10;39.51
42887;BME280;29032;56.028;92.904;2023-03-21T23:36:46;101156.13;;;-10.08;39.37
42887;BME280;29032;56.028;92.904;2023-03-21T23:41:48;101167.38;;;-10.03;39.41
42887;BME280;29032;56.028;92.904;2023-03-21T23:46:53;101162.00;;;-9.99;39.47
42887;BME280;29032;56.028;92.904;2023-03-21T23:51:55;101163.44;;;-10.09;39.24
42887;BME280;29032;56.028;92.904;2023-03-21T23:56:57;101174.50;;;-10.25;39.20
